Time;durP1;ratioP1;P1;durP2;ratioP2;P2;SDS_P1;SDS_P2;PMS_P1;PMS_P2;Temp;Humidity;BMP_temperature;BMP_pressure;BME280_temperature;BME280_humidity;BME280_pressure;Samples;Min_cycle;Max_cycle;Signal;HPM_P1;HPM_P2
2022/07/02 00:01:00;;;;;;;2.40;1.33;;;13.10;99.90;;;;;;5018350;28;20192;-75
2022/07/02 00:03:36;;;;;;;3.07;1.37;;;13.10;99.90;;;;;;5018298;28;20676;-74
2022/07/02 00:06:03;;;;;;;1.40;1.10;;;13.10;99.90;;;;;;5018115;28;20258;-74
2022/07/02 00:08:30;;;;;;;3.33;1.50;;;13.00;99.90;;;;;;5035993;28;20251;-75
2022/07/02 00:10:57;;;;;;;3.43;1.40;;;13.00;99.90;;;;;;5035737;28;20191;-75
2022/07/02 00:13:25;;;;;;;4.03;1.50;;;13.00;99.90;;;;;;5034502;28;20172;-74
2022/07/02 00:15:50;;;;;;;2.83;1.47;;;13.00;99.90;;;;;;5018074;28;20176;-74
2022/07/02 00:18:17;;;;;;;3.07;1.40;;;13.00;99.90;;;;;;5017891;28;20179;-75
2022/07/02 00:20:44;;;;;;;1.30;1.20;;;12.90;99.90;;;;;;5017773;28;20200;-75
2022/07/02 00:23:10;;;;;;;1.93;1.40;;;12.90;99.90;;;;;;5035559;28;20173;-76
2022/07/02 00:25:39;;;;;;;3.87;1.50;;;12.90;99.90;;;;;;5035546;28;20254;-75
2022/07/02 00:28:06;;;;;;;4.00;1.17;;;12.90;99.90;;;;;;5035415;28;20165;-76
2022/07/02 00:30:32;;;;;;;1.97;1.10;;;12.80;99.90;;;;;;5035633;28;20676;-74
2022/07/02 00:32:59;;;;;;;4.73;1.53;;;12.80;99.90;;;;;;5017607;28;20252;-75
2022/07/02 00:35:25;;;;;;;1.40;1.30;;;12.80;99.90;;;;;;5035235;28;20221;-75
2022/07/02 00:37:53;;;;;;;3.13;1.57;;;12.80;99.90;;;;;;5035287;28;20538;-76
2022/07/02 00:40:19;;;;;;;2.57;1.47;;;12.70;99.90;;;;;;5017342;28;20191;-75
2022/07/02 00:42:46;;;;;;;2.87;1.33;;;12.70;99.90;;;;;;5035616;28;20173;-75
2022/07/02 00:45:13;;;;;;;3.27;1.57;;;12.80;99.90;;;;;;5035246;28;20658;-74
2022/07/02 00:47:41;;;;;;;2.30;1.53;;;12.70;99.90;;;;;;5035142;28;20191;-75
2022/07/02 00:50:07;;;;;;;2.60;1.63;;;12.70;99.90;;;;;;5035148;28;20181;-75
2022/07/02 00:52:33;;;;;;;2.87;1.77;;;12.70;99.90;;;;;;5035191;28;20181;-75
2022/07/02 00:54:59;;;;;;;1.60;1.30;;;12.60;99.90;;;;;;5034982;28;20184;-74
2022/07/02 00:57:25;;;;;;;2.83;1.27;;;12.60;99.90;;;;;;5034869;28;20255;-74
2022/07/02 00:59:51;;;;;;;3.83;1.57;;;12.50;99.90;;;;;;5035014;28;20198;-74
2022/07/02 01:02:20;;;;;;;4.93;1.60;;;12.50;99.90;;;;;;5035056;28;20192;-74
2022/07/02 01:04:48;;;;;;;4.23;1.80;;;12.40;99.90;;;;;;5034703;28;20192;-74
2022/07/02 01:07:15;;;;;;;2.30;1.50;;;12.40;99.90;;;;;;5034989;28;20169;-75
2022/07/02 01:12:33;;;;;;;5.27;1.60;;;12.40;99.90;;;;;;5035369;28;20164;-75
2022/07/02 01:14:59;;;;;;;3.77;1.30;;;12.40;99.90;;;;;;5017194;28;20271;-75
2022/07/02 01:17:25;;;;;;;2.20;1.43;;;12.30;99.90;;;;;;5016858;28;20211;-75
2022/07/02 01:19:51;;;;;;;2.87;1.70;;;12.30;99.90;;;;;;5034558;28;20172;-75
2022/07/02 01:22:22;;;;;;;3.23;1.37;;;12.30;99.90;;;;;;5034350;28;20192;-74
2022/07/02 01:24:50;;;;;;;1.97;1.57;;;12.30;99.90;;;;;;5034008;28;20204;-75
2022/07/02 01:27:17;;;;;;;1.97;1.23;;;12.30;99.90;;;;;;5034512;28;20168;-75
2022/07/02 01:29:43;;;;;;;1.70;1.40;;;12.20;99.90;;;;;;5034259;28;20195;-75
2022/07/02 01:32:10;;;;;;;5.47;1.60;;;12.30;99.90;;;;;;5016489;28;20242;-75
2022/07/02 01:34:40;;;;;;;5.57;1.80;;;12.20;99.90;;;;;;5034260;28;20646;-75
2022/07/02 01:37:15;;;;;;;1.97;1.50;;;12.20;99.90;;;;;;5034173;28;20783;-75
2022/07/02 01:39:42;;;;;;;1.70;1.60;;;12.20;99.90;;;;;;5034300;28;20255;-77
2022/07/02 01:42:09;;;;;;;3.90;1.70;;;12.10;99.90;;;;;;5033896;28;20677;-76
2022/07/02 01:44:36;;;;;;;1.80;1.40;;;12.10;99.90;;;;;;5034061;28;20196;-75
2022/07/02 01:47:03;;;;;;;2.10;1.60;;;12.10;99.90;;;;;;5034240;28;20172;-75
2022/07/02 01:49:29;;;;;;;3.17;1.80;;;12.10;99.90;;;;;;5033894;28;20164;-75
2022/07/02 01:51:54;;;;;;;2.30;1.57;;;12.10;99.90;;;;;;5033853;28;20709;-75
2022/07/02 01:54:20;;;;;;;2.80;1.57;;;12.10;99.90;;;;;;5016476;28;20178;-75
2022/07/02 01:56:45;;;;;;;2.40;1.53;;;12.00;99.90;;;;;;5033873;28;20247;-74
2022/07/02 01:59:11;;;;;;;3.63;1.77;;;12.00;99.90;;;;;;5033927;28;20247;-75
2022/07/02 02:01:36;;;;;;;2.07;1.30;;;12.00;99.90;;;;;;5033719;28;20192;-77
2022/07/02 02:04:02;;;;;;;3.93;1.33;;;12.00;99.90;;;;;;5033788;28;20235;-76
2022/07/02 02:06:28;;;;;;;1.60;1.50;;;11.90;99.90;;;;;;5015936;28;20176;-75
2022/07/02 02:08:53;;;;;;;6.30;1.60;;;11.80;99.90;;;;;;5033495;28;20229;-75
2022/07/02 02:11:19;;;;;;;1.70;1.60;;;11.80;99.90;;;;;;5033761;28;20239;-75
2022/07/02 02:13:44;;;;;;;2.50;1.50;;;11.80;99.90;;;;;;5015939;28;20211;-75
2022/07/02 02:16:10;;;;;;;2.00;1.40;;;11.80;99.90;;;;;;5033485;28;20176;-75
2022/07/02 02:18:35;;;;;;;6.33;1.70;;;11.80;99.90;;;;;;5033700;28;20172;-75
2022/07/02 02:21:01;;;;;;;2.87;1.10;;;11.80;99.90;;;;;;5033469;28;20199;-75
2022/07/02 02:23:26;;;;;;;2.10;1.40;;;11.80;99.90;;;;;;5015709;28;20187;-75
2022/07/02 02:25:52;;;;;;;7.67;1.63;;;11.80;99.90;;;;;;5033829;28;20187;-76
2022/07/02 02:28:17;;;;;;;2.70;1.40;;;11.70;99.90;;;;;;5033321;28;20172;-75
2022/07/02 02:30:43;;;;;;;3.63;1.77;;;11.70;99.90;;;;;;5033452;28;20200;-75
2022/07/02 02:33:09;;;;;;;2.80;1.90;;;11.60;99.90;;;;;;5033443;28;20172;-75
2022/07/02 02:35:34;;;;;;;3.10;1.53;;;11.60;99.90;;;;;;5032658;28;20183;-75
2022/07/02 02:38:00;;;;;;;1.73;1.37;;;11.70;99.90;;;;;;5033329;28;20195;-74
2022/07/02 02:40:25;;;;;;;3.10;1.83;;;11.60;99.90;;;;;;5015496;28;20203;-75
2022/07/02 02:42:51;;;;;;;2.30;1.53;;;11.60;99.90;;;;;;5016874;28;20168;-76
2022/07/02 02:45:17;;;;;;;2.33;1.50;;;11.50;99.90;;;;;;5033259;28;20200;-75
2022/07/02 02:47:42;;;;;;;1.67;1.33;;;11.50;99.90;;;;;;5015553;28;20184;-75
2022/07/02 02:50:08;;;;;;;3.27;1.70;;;11.60;99.90;;;;;;5033492;28;20255;-75
2022/07/02 02:52:34;;;;;;;6.57;2.40;;;11.50;99.90;;;;;;5033339;28;20270;-75
2022/07/02 02:55:00;;;;;;;2.53;1.50;;;11.50;99.90;;;;;;5015418;28;20185;-75
2022/07/02 02:57:27;;;;;;;3.37;1.60;;;11.50;99.90;;;;;;5033539;28;20175;-75
2022/07/02 02:59:52;;;;;;;1.83;1.60;;;11.50;99.90;;;;;;5033337;28;20550;-75
2022/07/02 03:02:18;;;;;;;2.60;1.40;;;11.50;99.90;;;;;;5033000;28;20196;-76
2022/07/02 03:04:43;;;;;;;2.63;1.80;;;11.50;99.90;;;;;;5015352;28;20200;-75
2022/07/02 03:07:09;;;;;;;4.33;1.63;;;11.50;99.90;;;;;;5033071;28;20176;-75
2022/07/02 03:09:35;;;;;;;2.00;1.53;;;11.40;99.90;;;;;;5015285;28;20226;-75
2022/07/02 03:12:00;;;;;;;3.97;1.73;;;11.40;99.90;;;;;;5032867;28;20204;-76
2022/07/02 03:14:26;;;;;;;3.27;1.90;;;11.40;99.90;;;;;;5033086;28;20638;-76
2022/07/02 03:16:51;;;;;;;3.70;2.23;;;11.30;99.90;;;;;;5032780;28;20180;-75
2022/07/02 03:19:17;;;;;;;5.63;1.83;;;11.30;99.90;;;;;;5032862;28;20176;-75
2022/07/02 03:21:42;;;;;;;2.20;1.83;;;11.30;99.90;;;;;;5032690;28;20203;-74
2022/07/02 03:24:08;;;;;;;2.73;2.13;;;11.30;99.90;;;;;;5015048;28;20254;-76
2022/07/02 03:26:33;;;;;;;2.90;1.70;;;11.20;99.90;;;;;;5033105;28;20226;-75
2022/07/02 03:28:59;;;;;;;2.53;1.80;;;11.20;99.90;;;;;;5015074;28;20177;-75
2022/07/02 03:31:24;;;;;;;6.57;1.70;;;11.10;99.90;;;;;;5032681;28;20193;-75
2022/07/02 03:33:50;;;;;;;3.70;1.80;;;11.20;99.90;;;;;;5015109;28;20245;-75
2022/07/02 03:36:16;;;;;;;4.47;1.77;;;11.10;99.90;;;;;;5032904;28;20279;-75
2022/07/02 03:38:41;;;;;;;3.50;1.90;;;11.20;99.90;;;;;;5016002;28;20187;-76
2022/07/02 03:41:08;;;;;;;2.40;1.67;;;11.20;99.90;;;;;;5015063;28;20582;-75
2022/07/02 03:43:34;;;;;;;2.73;1.90;;;11.20;99.90;;;;;;5032779;28;20187;-75
2022/07/02 03:46:00;;;;;;;3.40;1.90;;;11.20;99.90;;;;;;5032716;28;20203;-75
2022/07/02 03:48:26;;;;;;;5.00;2.23;;;11.20;99.90;;;;;;5036120;28;20208;-75
2022/07/02 03:50:51;;;;;;;6.13;2.13;;;11.10;99.90;;;;;;5036286;28;20188;-75
2022/07/02 03:53:17;;;;;;;2.93;2.13;;;11.20;99.90;;;;;;5036097;28;20551;-75
2022/07/02 03:55:43;;;;;;;3.07;2.20;;;11.20;99.90;;;;;;5018430;28;20208;-76
2022/07/02 03:58:08;;;;;;;4.57;2.47;;;11.20;99.90;;;;;;5036159;28;20212;-74
2022/07/02 04:00:34;;;;;;;2.53;1.87;;;11.10;99.90;;;;;;5018166;28;20206;-75
2022/07/02 04:02:59;;;;;;;4.03;2.43;;;11.20;99.90;;;;;;5036018;28;20588;-75
2022/07/02 04:05:25;;;;;;;3.77;2.07;;;11.10;99.90;;;;;;5035705;28;20211;-75
2022/07/02 04:07:50;;;;;;;3.07;1.93;;;11.20;99.90;;;;;;5018216;28;20186;-75
2022/07/02 04:10:16;;;;;;;4.03;2.10;;;11.20;99.90;;;;;;5035842;28;20298;-75
2022/07/02 04:12:42;;;;;;;3.97;1.93;;;11.20;99.90;;;;;;5017996;28;20177;-76
2022/07/02 04:15:08;;;;;;;6.60;1.80;;;11.20;99.90;;;;;;5035825;28;20191;-76
2022/07/02 04:17:34;;;;;;;3.70;1.77;;;11.30;99.90;;;;;;5035657;28;20192;-75
2022/07/02 04:19:59;;;;;;;4.07;2.10;;;11.30;99.90;;;;;;5036281;28;20180;-75
2022/07/02 04:22:25;;;;;;;3.17;1.60;;;11.20;99.90;;;;;;5017759;28;20678;-76
2022/07/02 04:24:51;;;;;;;3.37;1.93;;;11.30;99.90;;;;;;5035631;28;20250;-75
2022/07/02 04:27:18;;;;;;;4.83;2.47;;;11.30;99.90;;;;;;5035479;28;20176;-75
2022/07/02 04:29:43;;;;;;;4.00;2.20;;;11.30;99.90;;;;;;5035552;28;20168;-75
2022/07/02 04:32:09;;;;;;;5.70;1.87;;;11.30;99.90;;;;;;5035671;28;20192;-76
2022/07/02 04:34:34;;;;;;;3.20;2.10;;;11.30;99.90;;;;;;5035388;28;20234;-75
2022/07/02 04:37:00;;;;;;;3.10;2.10;;;11.30;99.90;;;;;;5035538;28;20566;-75
2022/07/02 04:39:26;;;;;;;4.13;2.20;;;11.40;99.90;;;;;;5017744;28;20646;-77
2022/07/02 04:41:51;;;;;;;4.63;2.00;;;11.40;99.90;;;;;;5050423;22;20365;-75
2022/07/02 04:44:17;;;;;;;3.27;2.13;;;11.40;99.90;;;;;;5035110;28;20192;-75
2022/07/02 04:46:43;;;;;;;6.27;2.70;;;11.40;99.90;;;;;;5035147;28;20168;-75
2022/07/02 04:49:08;;;;;;;3.67;2.00;;;11.50;99.90;;;;;;5035398;28;20165;-75
2022/07/02 04:51:34;;;;;;;4.30;2.30;;;11.50;99.90;;;;;;5017282;28;20194;-76
2022/07/02 04:53:59;;;;;;;5.57;2.20;;;11.60;99.90;;;;;;5017277;28;20271;-73
2022/07/02 04:56:27;;;;;;;4.17;2.30;;;11.60;99.90;;;;;;5017373;28;20187;-75
2022/07/02 04:58:53;;;;;;;5.73;2.37;;;11.70;99.90;;;;;;5034235;28;20176;-75
2022/07/02 05:01:18;;;;;;;4.53;2.20;;;11.70;99.90;;;;;;5034938;28;20547;-75
2022/07/02 05:03:44;;;;;;;3.67;2.70;;;11.80;99.90;;;;;;5035007;28;20176;-74
2022/07/02 05:06:09;;;;;;;7.27;2.57;;;11.80;99.90;;;;;;5034829;28;20243;-74
2022/07/02 05:08:35;;;;;;;6.63;2.40;;;11.90;99.90;;;;;;5016996;28;20191;-75
2022/07/02 05:11:00;;;;;;;4.30;2.50;;;11.90;99.90;;;;;;5016811;28;20716;-75
2022/07/02 05:13:26;;;;;;;3.60;2.40;;;12.00;99.90;;;;;;5034628;28;20314;-75
2022/07/02 05:15:52;;;;;;;3.53;2.00;;;11.90;99.90;;;;;;5034536;28;20183;-75
2022/07/02 05:18:18;;;;;;;4.53;2.10;;;12.10;99.90;;;;;;5034393;28;20180;-74
2022/07/02 05:20:43;;;;;;;2.87;2.30;;;12.10;99.90;;;;;;5034835;28;20661;-74
2022/07/02 05:23:09;;;;;;;4.43;2.43;;;12.20;99.90;;;;;;5016747;28;20234;-75
2022/07/02 05:25:34;;;;;;;4.73;2.37;;;12.20;99.90;;;;;;5016661;28;20235;-73
2022/07/02 05:28:00;;;;;;;7.57;2.10;;;12.30;99.90;;;;;;5034514;28;20183;-74
2022/07/02 05:30:26;;;;;;;3.10;1.93;;;12.40;99.90;;;;;;5034285;28;20650;-75
2022/07/02 05:32:51;;;;;;;3.33;2.33;;;12.60;99.90;;;;;;5034110;28;20172;-75
2022/07/02 05:35:17;;;;;;;5.60;1.97;;;12.50;99.90;;;;;;5034044;28;20178;-75
2022/07/02 05:37:43;;;;;;;2.87;2.00;;;12.60;99.90;;;;;;5034037;28;20176;-74
2022/07/02 05:40:10;;;;;;;2.80;1.90;;;12.60;99.90;;;;;;5016173;28;20180;-75
2022/07/02 05:42:35;;;;;;;6.80;2.13;;;12.70;99.90;;;;;;5015987;28;20408;-75
2022/07/02 05:45:01;;;;;;;5.63;2.53;;;12.80;99.90;;;;;;5033738;28;20204;-75
2022/07/02 05:47:26;;;;;;;7.17;2.07;;;12.90;99.90;;;;;;5015953;28;20204;-75
2022/07/02 05:49:52;;;;;;;5.37;2.20;;;13.00;99.90;;;;;;5016052;28;20266;-75
2022/07/02 05:52:18;;;;;;;2.30;1.77;;;13.10;99.90;;;;;;5033657;28;20188;-75
2022/07/02 05:54:45;;;;;;;2.60;1.67;;;13.20;99.90;;;;;;5034312;28;20226;-74
2022/07/02 05:57:10;;;;;;;3.90;1.80;;;13.20;99.90;;;;;;5033824;28;20643;-75
2022/07/02 05:59:36;;;;;;;4.43;2.37;;;13.30;99.90;;;;;;5033565;28;20188;-75
2022/07/02 06:02:06;;;;;;;7.83;1.90;;;13.50;99.90;;;;;;5033452;28;20258;-75
2022/07/02 06:04:32;;;;;;;3.77;2.00;;;13.50;99.90;;;;;;5033433;28;20207;-75
2022/07/02 06:09:46;;;;;;;2.73;1.80;;;13.70;99.90;;;;;;5033389;28;20206;-75
2022/07/02 06:12:11;;;;;;;4.17;2.17;;;13.80;99.90;;;;;;5033066;28;20275;-75
2022/07/02 06:14:37;;;;;;;1.93;1.73;;;13.90;99.90;;;;;;5033369;28;20248;-75
2022/07/02 06:17:02;;;;;;;3.33;1.90;;;14.00;99.90;;;;;;5015599;28;20223;-75
2022/07/02 06:19:28;;;;;;;4.90;2.30;;;14.00;99.90;;;;;;5033278;28;20184;-75
2022/07/02 06:21:54;;;;;;;3.60;1.60;;;14.10;99.90;;;;;;5033401;28;20207;-75
2022/07/02 06:24:20;;;;;;;6.63;2.00;;;14.20;99.90;;;;;;5033234;28;20258;-75
2022/07/02 06:26:45;;;;;;;3.03;1.80;;;14.30;99.90;;;;;;5033400;28;20176;-75
2022/07/02 06:29:11;;;;;;;5.90;1.87;;;14.40;99.90;;;;;;5033294;28;20168;-75
2022/07/02 06:31:37;;;;;;;4.73;2.10;;;14.40;99.90;;;;;;5033079;28;20278;-75
2022/07/02 06:34:04;;;;;;;3.30;2.00;;;14.50;99.90;;;;;;5033094;28;20234;-75
2022/07/02 06:36:29;;;;;;;3.57;1.93;;;14.50;99.90;;;;;;5033274;28;20258;-75
2022/07/02 06:38:55;;;;;;;2.33;1.90;;;14.60;99.90;;;;;;5015342;28;20219;-75
2022/07/02 06:44:06;;;;;;;2.57;1.47;;;14.80;99.90;;;;;;5033147;28;20254;-75
2022/07/02 06:46:32;;;;;;;2.60;1.90;;;14.90;99.90;;;;;;5032930;28;20183;-75
2022/07/02 06:48:58;;;;;;;6.53;2.07;;;15.00;99.90;;;;;;5033322;28;20175;-75
2022/07/02 06:51:23;;;;;;;4.23;1.60;;;15.00;99.90;;;;;;5032845;28;20204;-75
2022/07/02 06:53:49;;;;;;;1.77;1.43;;;15.10;99.90;;;;;;5033203;28;20180;-75
2022/07/02 06:56:15;;;;;;;2.87;1.40;;;15.20;99.90;;;;;;5032897;28;20172;-75
2022/07/02 06:58:40;;;;;;;2.97;1.47;;;15.30;99.90;;;;;;5032861;28;20180;-75
2022/07/02 07:01:06;;;;;;;2.40;1.60;;;15.40;99.90;;;;;;5015214;28;20208;-75
2022/07/02 07:03:31;;;;;;;5.53;1.30;;;15.50;99.90;;;;;;5033137;28;20188;-75
2022/07/02 07:05:57;;;;;;;2.73;1.50;;;15.60;99.90;;;;;;5033035;28;20172;-75
2022/07/02 07:08:22;;;;;;;4.10;1.80;;;15.60;99.90;;;;;;5015363;28;20173;-75
2022/07/02 07:10:48;;;;;;;4.80;1.60;;;15.70;99.90;;;;;;5015084;28;20242;-74
2022/07/02 07:13:13;;;;;;;1.80;1.20;;;15.80;99.90;;;;;;5033171;28;20195;-75
2022/07/02 07:15:39;;;;;;;2.73;1.17;;;15.90;99.90;;;;;;5033109;28;20180;-73
2022/07/02 07:18:04;;;;;;;2.60;1.60;;;15.90;99.90;;;;;;5033194;28;20180;-75
2022/07/02 07:20:32;;;;;;;3.73;1.50;;;15.90;99.90;;;;;;5014910;28;20235;-75
2022/07/02 07:22:57;;;;;;;3.63;1.30;;;16.10;99.90;;;;;;5035699;28;20175;-76
2022/07/02 07:25:23;;;;;;;5.50;1.40;;;16.20;99.90;;;;;;5018725;28;20203;-76
2022/07/02 07:27:49;;;;;;;1.80;1.20;;;16.30;99.90;;;;;;5036471;28;20180;-76
2022/07/02 07:30:15;;;;;;;1.30;1.20;;;16.40;99.90;;;;;;5036634;28;20630;-76
2022/07/02 07:32:44;;;;;;;3.93;1.17;;;16.50;99.90;;;;;;5036761;28;20580;-76
2022/07/02 07:35:10;;;;;;;2.60;1.00;;;16.60;99.90;;;;;;5036805;28;20259;-75
2022/07/02 07:37:36;;;;;;;2.47;1.20;;;16.70;99.90;;;;;;5036513;28;20653;-76
2022/07/02 07:40:07;;;;;;;4.27;1.13;;;16.80;99.90;;;;;;5036576;28;20173;-76
2022/07/02 07:42:33;;;;;;;5.53;1.20;;;16.90;99.90;;;;;;5036477;28;20273;-75
2022/07/02 07:44:59;;;;;;;1.70;1.03;;;17.00;99.90;;;;;;5036283;28;20206;-76
2022/07/02 07:47:24;;;;;;;3.53;1.10;;;17.20;99.90;;;;;;5018469;28;20531;-76
2022/07/02 07:49:50;;;;;;;2.27;0.90;;;17.30;99.90;;;;;;5036179;28;20176;-76
2022/07/02 07:52:15;;;;;;;2.37;1.23;;;17.40;99.90;;;;;;5036007;28;20200;-76
2022/07/02 07:54:41;;;;;;;4.40;0.83;;;17.40;99.90;;;;;;5018402;28;20184;-76
2022/07/02 07:57:07;;;;;;;3.00;1.10;;;17.50;99.90;;;;;;5036960;28;20713;-76
2022/07/02 07:59:33;;;;;;;2.50;0.90;;;17.60;99.90;;;;;;5036347;28;20184;-76
2022/07/02 08:01:58;;;;;;;2.50;1.03;;;17.70;99.90;;;;;;5018984;28;20294;-77
2022/07/02 08:04:24;;;;;;;0.93;0.70;;;17.70;99.90;;;;;;5036409;28;20204;-76
2022/07/02 08:06:50;;;;;;;2.10;0.90;;;17.80;99.90;;;;;;5018977;28;20226;-76
2022/07/02 08:09:16;;;;;;;4.67;0.80;;;17.80;99.90;;;;;;5036220;28;20180;-76
2022/07/02 08:11:41;;;;;;;1.83;0.97;;;17.90;99.90;;;;;;5018160;28;20196;-76
2022/07/02 08:14:07;;;;;;;2.30;0.90;;;18.00;99.90;;;;;;5036041;28;20172;-76
2022/07/02 08:16:32;;;;;;;2.67;0.80;;;18.20;99.90;;;;;;5035631;28;20177;-77
2022/07/02 08:18:58;;;;;;;2.90;1.00;;;18.30;99.90;;;;;;5035519;28;20180;-76
2022/07/02 08:21:23;;;;;;;1.63;0.80;;;18.40;99.90;;;;;;5035581;28;20258;-77
2022/07/02 08:23:49;;;;;;;0.97;0.80;;;18.40;99.90;;;;;;5035407;28;20203;-77
2022/07/02 08:26:15;;;;;;;1.60;0.80;;;18.50;99.90;;;;;;5035513;28;20196;-76
2022/07/02 08:28:41;;;;;;;2.87;0.90;;;18.60;99.90;;;;;;5018172;28;20555;-77
2022/07/02 08:31:06;;;;;;;0.63;0.50;;;18.80;99.90;;;;;;5017634;28;20208;-76
2022/07/02 08:33:32;;;;;;;1.70;0.60;;;18.80;99.90;;;;;;5034679;28;20522;-76
2022/07/02 08:35:57;;;;;;;4.63;1.10;;;18.90;99.90;;;;;;5017704;28;20180;-77
2022/07/02 08:38:23;;;;;;;3.93;1.00;;;19.00;99.90;;;;;;5035188;28;20198;-76
2022/07/02 08:40:49;;;;;;;2.67;0.80;;;19.20;99.90;;;;;;5034914;28;20218;-76
2022/07/02 08:43:16;;;;;;;3.70;0.87;;;19.40;99.90;;;;;;5035312;28;20682;-76
2022/07/02 08:45:43;;;;;;;2.97;0.70;;;19.50;99.90;;;;;;5017291;28;20303;-77
2022/07/02 08:48:13;;;;;;;2.20;0.70;;;19.60;99.90;;;;;;5035060;28;20176;-76
2022/07/02 08:50:39;;;;;;;1.10;0.67;;;19.60;99.90;;;;;;5017395;28;20227;-76
2022/07/02 08:53:06;;;;;;;0.90;0.70;;;19.70;99.90;;;;;;5034959;28;20207;-77
2022/07/02 08:55:34;;;;;;;1.83;0.90;;;19.70;99.90;;;;;;5017532;28;20642;-76
2022/07/02 08:58:00;;;;;;;1.00;0.43;;;19.70;99.90;;;;;;5017313;28;20597;-77
2022/07/02 09:00:26;;;;;;;6.20;0.87;;;19.70;99.90;;;;;;5034888;28;20594;-77
2022/07/02 09:02:53;;;;;;;3.17;1.20;;;19.80;99.90;;;;;;5017140;28;20184;-77
2022/07/02 09:05:21;;;;;;;3.43;0.83;;;19.90;99.90;;;;;;5034776;28;20192;-77
2022/07/02 09:07:47;;;;;;;1.30;0.67;;;20.00;99.90;;;;;;5035293;28;20571;-77
2022/07/02 09:10:17;;;;;;;3.87;0.90;;;20.00;99.90;;;;;;5034785;28;20173;-77
2022/07/02 09:12:43;;;;;;;3.10;0.97;;;20.10;99.90;;;;;;5017342;28;20199;-76
2022/07/02 09:15:10;;;;;;;3.70;0.80;;;20.20;99.90;;;;;;5034714;28;20172;-77
2022/07/02 09:17:36;;;;;;;2.13;0.60;;;20.30;99.90;;;;;;5035288;28;20184;-77
2022/07/02 09:20:04;;;;;;;1.53;0.40;;;20.30;99.90;;;;;;5017420;28;20266;-77
2022/07/02 09:22:36;;;;;;;0.37;0.37;;;20.50;99.90;;;;;;5016675;28;20203;-77
2022/07/02 09:25:07;;;;;;;1.90;0.70;;;20.60;99.90;;;;;;5034700;28;20250;-77
2022/07/02 09:27:33;;;;;;;2.00;0.63;;;20.60;99.90;;;;;;5016650;28;20172;-76
2022/07/02 09:29:58;;;;;;;1.70;1.00;;;20.70;99.90;;;;;;5016663;28;20177;-77
2022/07/02 09:32:24;;;;;;;1.03;0.67;;;20.80;99.90;;;;;;5016561;28;20281;-77
2022/07/02 09:34:51;;;;;;;2.30;0.80;;;20.80;99.90;;;;;;5034445;28;20176;-77
2022/07/02 09:37:17;;;;;;;1.93;0.83;;;20.80;99.90;;;;;;5016533;28;20180;-77
2022/07/02 09:39:43;;;;;;;2.20;0.57;;;20.90;99.90;;;;;;5034130;28;20544;-77
2022/07/02 09:42:10;;;;;;;3.20;0.63;;;20.90;99.90;;;;;;5034179;28;20208;-77
2022/07/02 09:44:45;;;;;;;0.87;0.60;;;21.00;99.90;;;;;;5033969;28;20231;-77
2022/07/02 09:47:10;;;;;;;1.73;0.60;;;21.10;99.90;;;;;;5034723;28;20164;-77
2022/07/02 09:49:48;;;;;;;1.70;0.90;;;21.20;99.90;;;;;;5034118;28;20179;-77
2022/07/02 09:52:15;;;;;;;1.20;0.50;;;21.30;99.90;;;;;;5033990;28;20207;-78
2022/07/02 09:54:42;;;;;;;1.47;0.73;;;21.40;99.90;;;;;;5016331;28;20263;-77
2022/07/02 09:57:12;;;;;;;1.73;0.70;;;21.40;99.90;;;;;;5017122;28;20172;-77
2022/07/02 09:59:39;;;;;;;2.83;0.60;;;21.50;99.90;;;;;;5016941;28;20184;-78
2022/07/02 10:02:17;;;;;;;0.57;0.40;;;21.60;99.90;;;;;;5018291;28;20594;-78
2022/07/02 10:04:44;;;;;;;2.73;0.57;;;21.60;99.90;;;;;;5035017;28;20180;-77
2022/07/02 10:07:10;;;;;;;1.83;0.63;;;21.70;99.90;;;;;;5034895;28;20176;-77
2022/07/02 10:09:39;;;;;;;1.63;0.60;;;21.70;99.90;;;;;;5034878;28;20646;-78
2022/07/02 10:12:07;;;;;;;1.17;0.40;;;21.80;99.90;;;;;;5034468;28;20271;-77
2022/07/02 10:14:34;;;;;;;1.70;0.70;;;21.90;99.90;;;;;;5034907;28;20181;-78
2022/07/02 10:17:01;;;;;;;2.43;0.50;;;22.00;99.90;;;;;;5035473;28;20172;-78
2022/07/02 10:19:28;;;;;;;2.60;0.90;;;22.00;99.90;;;;;;5017182;28;20649;-78
2022/07/02 10:21:55;;;;;;;0.53;0.40;;;22.00;99.90;;;;;;5017838;28;20196;-78
2022/07/02 10:24:23;;;;;;;3.43;0.77;;;22.10;99.90;;;;;;5034629;28;20202;-78
2022/07/02 10:26:54;;;;;;;1.83;0.60;;;22.10;99.90;;;;;;5034656;28;20558;-77
2022/07/02 10:29:21;;;;;;;1.97;0.60;;;22.10;99.90;;;;;;5016782;28;20172;-78
2022/07/02 10:31:57;;;;;;;6.03;0.73;;;22.10;99.90;;;;;;5016710;28;20199;-77
2022/07/02 10:34:42;;;;;;;1.73;0.63;;;22.20;99.90;;;;;;5034563;28;20174;-78
2022/07/02 10:37:10;;;;;;;0.77;0.50;;;22.20;99.90;;;;;;5016542;28;20218;-78
2022/07/02 10:39:40;;;;;;;0.60;0.57;;;22.20;99.90;;;;;;5016564;28;20184;-78
2022/07/02 10:42:06;;;;;;;0.93;0.67;;;22.30;99.90;;;;;;5031047;22;20302;-77
2022/07/02 10:44:39;;;;;;;1.00;0.60;;;22.30;99.90;;;;;;5032861;28;20666;-76
2022/07/02 10:47:15;;;;;;;1.20;0.60;;;22.40;99.90;;;;;;5015043;28;20172;-76
2022/07/02 10:49:41;;;;;;;1.13;0.50;;;22.40;99.90;;;;;;5032694;28;20214;-76
2022/07/02 10:52:06;;;;;;;2.23;0.60;;;22.30;99.90;;;;;;5032426;28;20184;-77
2022/07/02 10:54:32;;;;;;;1.30;0.73;;;22.30;99.90;;;;;;5031508;28;20204;-77
2022/07/02 10:56:58;;;;;;;1.60;0.50;;;22.40;99.90;;;;;;5034140;28;20168;-77
2022/07/02 10:59:36;;;;;;;2.40;0.83;;;22.40;99.90;;;;;;5020176;28;20238;-77
2022/07/02 11:02:07;;;;;;;2.23;0.60;;;22.50;99.90;;;;;;5022134;28;20279;-77
2022/07/02 11:04:34;;;;;;;2.27;0.60;;;22.60;99.90;;;;;;5037399;28;20203;-77
2022/07/02 11:07:11;;;;;;;1.33;0.53;;;22.60;99.90;;;;;;5036752;28;20192;-77
2022/07/02 11:09:50;;;;;;;2.10;0.53;;;22.70;99.90;;;;;;5036453;28;20242;-77
2022/07/02 11:12:27;;;;;;;1.90;0.43;;;22.80;99.90;;;;;;5036417;28;20180;-76
2022/07/02 11:14:54;;;;;;;1.00;0.57;;;22.90;99.90;;;;;;5018580;28;20204;-76
2022/07/02 11:17:22;;;;;;;2.40;0.90;;;23.00;99.90;;;;;;5036364;28;20183;-77
2022/07/02 11:19:52;;;;;;;2.63;1.47;;;23.00;99.90;;;;;;5036570;28;20172;-76
2022/07/02 11:22:18;;;;;;;2.23;0.40;;;23.00;99.90;;;;;;5018388;28;20223;-77
2022/07/02 11:24:44;;;;;;;1.20;0.50;;;23.10;99.90;;;;;;5036160;28;20654;-76
2022/07/02 11:27:10;;;;;;;1.43;0.70;;;23.10;99.90;;;;;;5036117;28;20242;-77
2022/07/02 11:29:35;;;;;;;1.23;0.57;;;23.10;99.90;;;;;;5018507;28;20587;-77
2022/07/02 11:32:01;;;;;;;1.33;0.70;;;23.20;99.90;;;;;;5036015;28;20675;-76
2022/07/02 11:34:29;;;;;;;1.97;0.60;;;23.30;99.90;;;;;;5035999;28;20200;-76
2022/07/02 11:36:55;;;;;;;1.57;0.60;;;23.40;99.90;;;;;;5035944;28;20176;-77
2022/07/02 11:39:23;;;;;;;2.40;0.70;;;23.50;99.90;;;;;;5018202;28;20593;-77
2022/07/02 11:41:50;;;;;;;0.83;0.40;;;23.50;99.90;;;;;;5035832;28;20212;-76
2022/07/02 11:44:24;;;;;;;3.23;0.80;;;23.60;99.90;;;;;;5018090;28;20666;-77
2022/07/02 11:46:51;;;;;;;0.60;0.40;;;23.40;99.90;;;;;;5035924;28;20159;-77
2022/07/02 11:49:21;;;;;;;1.33;0.60;;;23.30;99.90;;;;;;5036485;28;20176;-77
2022/07/02 11:51:49;;;;;;;2.20;0.50;;;23.40;99.90;;;;;;5035946;28;20188;-76
2022/07/02 11:54:15;;;;;;;2.80;0.60;;;23.60;6.40;;;;;;5035798;28;20234;-76
2022/07/02 11:56:42;;;;;;;2.53;0.50;;;23.50;99.90;;;;;;5035796;28;20754;-77
2022/07/02 11:59:13;;;;;;;1.60;0.60;;;23.50;99.90;;;;;;5036099;28;20602;-76
2022/07/02 12:01:40;;;;;;;2.97;1.13;;;23.70;48.40;;;;;;5017846;28;20192;-76
2022/07/02 12:04:09;;;;;;;2.20;0.60;;;23.70;25.30;;;;;;5035712;28;20184;-76
2022/07/02 12:06:39;;;;;;;2.07;0.60;;;23.80;99.90;;;;;;5036041;28;20559;-77
2022/07/02 12:09:16;;;;;;;1.53;0.53;;;23.90;1.00;;;;;;5017515;28;20168;-76
2022/07/02 12:11:44;;;;;;;1.30;0.50;;;23.90;1.00;;;;;;5035274;28;20184;-76
2022/07/02 12:14:11;;;;;;;1.67;0.70;;;24.00;1.00;;;;;;5017618;28;20207;-77
2022/07/02 12:16:39;;;;;;;1.37;0.50;;;24.00;1.00;;;;;;5035498;28;20170;-76
2022/07/02 12:19:07;;;;;;;1.23;0.40;;;24.00;99.90;;;;;;5035455;28;20180;-76
2022/07/02 12:21:37;;;;;;;2.53;0.70;;;24.00;1.00;;;;;;5017297;28;20346;-75
2022/07/02 12:24:06;;;;;;;1.03;0.50;;;24.00;1.00;;;;;;5017325;28;20200;-76
2022/07/02 12:26:32;;;;;;;1.83;0.47;;;23.90;46.60;;;;;;5035366;28;20168;-76
2022/07/02 12:31:53;;;;;;;0.97;0.50;;;24.00;1.00;;;;;;5035345;28;20697;-76
2022/07/02 12:34:21;;;;;;;2.53;0.70;;;24.20;1.00;;;;;;5017142;28;20314;-76
2022/07/02 12:36:57;;;;;;;1.37;0.57;;;24.30;1.00;;;;;;5034882;28;20168;-77
2022/07/02 12:39:42;;;;;;;0.77;0.50;;;24.30;1.00;;;;;;5034809;28;20670;-76
2022/07/02 12:42:17;;;;;;;0.63;0.40;;;24.30;1.00;;;;;;5034704;28;20210;-76
2022/07/02 12:45:01;;;;;;;0.60;0.50;;;24.30;1.00;;;;;;5034672;28;20226;-75
2022/07/02 12:47:34;;;;;;;0.87;0.60;;;24.20;1.00;;;;;;5035254;28;20187;-77
2022/07/02 12:50:13;;;;;;;0.93;0.40;;;24.20;1.00;;;;;;5034848;28;20168;-76
2022/07/02 12:52:56;;;;;;;1.07;0.50;;;24.30;1.00;;;;;;5016839;28;20338;-76
2022/07/02 12:55:33;;;;;;;1.07;0.50;;;24.40;1.00;;;;;;5034699;28;20180;-77
2022/07/02 12:58:01;;;;;;;0.83;0.60;;;24.40;1.00;;;;;;5034509;28;20267;-76